createdAt,value
2022-09-04T00:04:26.385Z,63.33
2022-09-04T00:09:57.946Z,63.58
2022-09-04T00:15:20.713Z,63.47
2022-09-04T00:20:29.967Z,63.61
2022-09-04T00:25:55.084Z,63.39
2022-09-04T00:31:27.310Z,64.23
2022-09-04T00:36:31.605Z,63.81
2022-09-04T00:42:22.535Z,64.38
2022-09-04T00:48:05.472Z,64.06
2022-09-04T00:53:26.808Z,63.67
2022-09-04T00:58:33.806Z,63.98
2022-09-04T01:04:15.412Z,63.79
2022-09-04T01:09:44.743Z,64.32
2022-09-04T01:15:16.310Z,63.82
2022-09-04T01:20:39.891Z,64.02
2022-09-04T01:26:10.238Z,63.79
2022-09-04T01:31:50.385Z,63.75
2022-09-04T01:37:06.017Z,64.08
2022-09-04T01:42:18.539Z,64.03
2022-09-04T01:47:30.451Z,63.98
2022-09-04T01:53:05.918Z,63.92
2022-09-04T01:58:15.386Z,64.20
2022-09-04T02:03:41.928Z,64.30
2022-09-04T02:08:47.796Z,64.48
2022-09-04T02:14:09.027Z,64.48
2022-09-04T02:19:31.181Z,64.92
2022-09-04T02:25:00.399Z,65.02
2022-09-04T02:30:10.665Z,64.76
2022-09-04T02:35:51.463Z,64.85
2022-09-04T02:41:27.028Z,65.09
2022-09-04T02:46:38.172Z,65.12
2022-09-04T02:51:50.545Z,65.22
2022-09-04T02:57:02.663Z,65.37
2022-09-04T03:02:15.890Z,65.52
2022-09-04T03:07:28.228Z,65.41
2022-09-04T03:12:50.176Z,65.17
2022-09-04T03:18:16.829Z,65.53
2022-09-04T03:23:33.356Z,65.99
2022-09-04T03:29:01.568Z,66.73
2022-09-04T03:34:11.208Z,66.58
2022-09-04T03:39:31.274Z,66.42
2022-09-04T03:44:50.471Z,66.60
2022-09-04T03:50:18.282Z,67.16
2022-09-04T03:55:48.479Z,67.28
2022-09-04T04:01:27.197Z,67.76
2022-09-04T04:06:30.476Z,67.68
2022-09-04T04:11:51.601Z,68.01
2022-09-04T04:17:22.661Z,68.50
2022-09-04T04:22:45.218Z,68.61
2022-09-04T04:28:07.581Z,69.04
2022-09-04T04:33:42.842Z,68.70
2022-09-04T04:39:01.204Z,69.04
2022-09-04T04:44:17.497Z,69.01
2022-09-04T04:49:29.431Z,68.97
2022-09-04T04:54:51.687Z,68.53
2022-09-04T05:00:08.723Z,68.50
2022-09-04T05:05:23.805Z,68.43
2022-09-04T05:10:42.067Z,68.10
2022-09-04T05:16:10.249Z,67.86
2022-09-04T05:21:38.560Z,67.76
2022-09-04T05:26:50.372Z,67.59
2022-09-04T05:32:05.675Z,67.18
2022-09-04T05:37:23.781Z,66.90
2022-09-04T05:42:42.901Z,66.88
2022-09-04T05:47:46.209Z,66.69
2022-09-04T05:53:11.024Z,66.43
2022-09-04T05:58:20.206Z,66.09
2022-09-04T06:03:38.739Z,65.96
2022-09-04T06:08:52.394Z,65.49
2022-09-04T06:14:07.418Z,64.92
2022-09-04T06:19:38.541Z,64.57
2022-09-04T06:25:10.754Z,64.57
2022-09-04T06:30:16.131Z,63.72
2022-09-04T06:35:27.198Z,63.49
2022-09-04T06:40:39.195Z,62.60
2022-09-04T06:46:24.168Z,61.95
2022-09-04T06:51:39.579Z,62.24
2022-09-04T06:56:54.567Z,61.96
2022-09-04T07:02:22.700Z,61.14
2022-09-04T07:07:44.755Z,60.09
2022-09-04T07:13:25.903Z,60.06
2022-09-04T07:18:54.812Z,59.15
2022-09-04T07:24:02.832Z,58.75
2022-09-04T07:29:25.750Z,58.01
2022-09-04T07:34:35.467Z,57.05
2022-09-04T07:40:30.799Z,55.87
2022-09-04T07:45:35.390Z,55.22
2022-09-04T07:51:05.097Z,54.87
2022-09-04T07:56:39.505Z,55.25
2022-09-04T08:01:57.578Z,54.52
2022-09-04T08:07:10.796Z,54.97
2022-09-04T08:12:35.781Z,54.04
2022-09-04T08:17:58.183Z,54.13
2022-09-04T08:23:17.366Z,53.26
2022-09-04T08:28:36.143Z,51.65
2022-09-04T08:33:45.593Z,49.94
2022-09-04T08:38:49.110Z,49.38
2022-09-04T08:43:58.667Z,49.58
2022-09-04T08:49:12.011Z,49.63
2022-09-04T08:54:33.349Z,47.87
2022-09-04T09:00:08.887Z,47.52
2022-09-04T09:05:46.936Z,47.59
2022-09-04T09:11:15.436Z,46.20
2022-09-04T09:16:20.649Z,46.47
2022-09-04T09:21:39.364Z,46.03
2022-09-04T09:26:55.884Z,45.99
2022-09-04T09:32:40.154Z,46.36
2022-09-04T09:38:04.682Z,44.86
2022-09-04T09:43:53.543Z,44.46
2022-09-04T09:49:27.063Z,42.80
2022-09-04T09:54:51.877Z,43.60
2022-09-04T10:00:13.724Z,42.84
2022-09-04T10:05:19.797Z,42.68
2022-09-04T10:10:46.196Z,40.96
2022-09-04T10:16:06.662Z,40.89
2022-09-04T10:21:21.156Z,40.57
2022-09-04T10:26:43.185Z,39.58
2022-09-04T10:32:07.486Z,40.70
2022-09-04T10:37:35.578Z,40.21
2022-09-04T10:43:12.886Z,39.34
2022-09-04T10:48:28.870Z,39.78
2022-09-04T10:54:15.726Z,37.01
2022-09-04T10:59:36.546Z,36.67
2022-09-04T11:04:49.381Z,36.79
2022-09-04T11:10:11.428Z,37.07
2022-09-04T11:15:41.774Z,36.81
2022-09-04T11:21:21.436Z,37.30
2022-09-04T11:27:05.974Z,37.52
2022-09-04T11:32:38.306Z,37.42
2022-09-04T11:37:41.515Z,36.60
2022-09-04T11:43:15.953Z,36.11
2022-09-04T11:48:31.656Z,35.77
2022-09-04T11:54:00.976Z,35.17
2022-09-04T11:59:28.452Z,34.76
2022-09-04T12:04:43.539Z,34.78
2022-09-04T12:10:11.257Z,34.21
2022-09-04T12:15:38.804Z,34.21
2022-09-04T12:20:57.065Z,33.91
2022-09-04T12:26:21.881Z,34.48
2022-09-04T12:31:51.927Z,34.65
2022-09-04T12:37:24.413Z,34.43
2022-09-04T12:42:51.989Z,34.92
2022-09-04T12:48:20.492Z,34.83
2022-09-04T12:53:47.015Z,34.66
2022-09-04T12:59:25.795Z,34.46
2022-09-04T13:04:41.087Z,33.64
2022-09-04T13:09:57.805Z,33.66
2022-09-04T13:15:22.424Z,32.95
2022-09-04T13:20:57.470Z,33.01
2022-09-04T13:26:30.170Z,33.04
2022-09-04T13:32:10.655Z,32.76
2022-09-04T13:37:45.602Z,32.95
2022-09-04T13:42:54.752Z,32.65
2022-09-04T13:48:08.917Z,32.74
2022-09-04T13:53:21.546Z,32.86
2022-09-04T13:58:34.379Z,32.81
2022-09-04T14:04:02.854Z,32.59
2022-09-04T14:09:07.113Z,32.49
2022-09-04T14:14:31.209Z,32.53
2022-09-04T14:19:59.506Z,32.55
2022-09-04T14:25:16.096Z,30.06
2022-09-04T14:30:23.310Z,26.91
2022-09-04T14:36:05.861Z,25.74
2022-09-04T14:41:24.738Z,25.07
2022-09-04T14:46:56.429Z,22.36
2022-09-04T14:52:10.068Z,21.72
2022-09-04T14:57:39.899Z,19.84
2022-09-04T15:02:56.418Z,17.07
2022-09-04T15:08:03.569Z,15.05
2022-09-04T15:13:19.998Z,14.32
2022-09-04T15:18:34.304Z,11.08
2022-09-04T15:24:26.988Z,10.58
2022-09-04T15:29:33.974Z,11.22
2022-09-04T15:34:38.745Z,11.55
2022-09-04T15:39:49.148Z,11.25
2022-09-04T15:44:52.811Z,10.93
2022-09-04T15:50:01.858Z,10.60
2022-09-04T15:55:30.155Z,11.10
2022-09-04T16:00:56.682Z,10.97
2022-09-04T16:06:06.676Z,10.66
2022-09-04T16:11:22.172Z,10.54
2022-09-04T16:16:48.936Z,10.68
2022-09-04T16:22:27.774Z,11.14
2022-09-04T16:27:32.172Z,11.33
2022-09-04T16:32:36.342Z,11.93
2022-09-04T16:37:50.406Z,12.26
2022-09-04T16:43:17.064Z,12.69
2022-09-04T16:48:34.548Z,13.25
2022-09-04T16:53:50.922Z,13.79
2022-09-04T16:59:00.787Z,14.47
2022-09-04T17:04:17.204Z,15.65
2022-09-04T17:09:30.140Z,17.11
2022-09-04T17:14:43.591Z,17.28
2022-09-04T17:20:04.928Z,18.84
2022-09-04T17:29:10.276Z,20.33
2022-09-04T17:30:56.889Z,21.42
2022-09-04T17:40:52.230Z,22.61
2022-09-04T17:42:08.471Z,23.26
2022-09-04T17:47:34.552Z,26.11
2022-09-04T17:53:04.123Z,27.86
2022-09-04T17:58:11.232Z,28.87
2022-09-04T18:04:02.888Z,30.06
2022-09-04T18:09:40.022Z,31.63
2022-09-04T18:15:12.902Z,31.92
2022-09-04T18:20:51.590Z,34.21
2022-09-04T18:26:22.473Z,34.06
2022-09-04T18:37:12.806Z,33.90
2022-09-04T18:37:46.387Z,34.05
2022-09-04T18:46:06.574Z,34.52
2022-09-04T18:50:30.866Z,36.16
2022-09-04T18:53:51.432Z,36.60
2022-09-04T18:59:01.097Z,36.95
2022-09-04T19:04:45.418Z,37.36
2022-09-04T19:10:21.137Z,39.02
2022-09-04T19:15:27.474Z,38.15
2022-09-04T19:21:26.232Z,39.62
2022-09-04T19:26:47.658Z,41.47
2022-09-04T19:32:07.754Z,41.94
2022-09-04T19:38:22.640Z,41.92
2022-09-04T19:46:02.488Z,42.65
2022-09-04T19:52:58.935Z,42.91
2022-09-04T19:55:25.024Z,44.26
2022-09-04T20:00:43.065Z,44.84
2022-09-04T20:06:20.255Z,45.78
2022-09-04T20:11:38.295Z,45.60
2022-09-04T20:17:13.919Z,45.72
2022-09-04T20:22:48.961Z,45.80
2022-09-04T20:28:16.437Z,47.84
2022-09-04T20:33:27.148Z,47.95
2022-09-04T20:38:51.220Z,49.32
2022-09-04T20:44:15.932Z,49.26
2022-09-04T20:52:55.662Z,51.18
2022-09-04T20:55:46.082Z,50.78
2022-09-04T21:03:23.715Z,49.91
2022-09-04T21:06:32.166Z,50.29
2022-09-04T21:11:43.646Z,50.29
2022-09-04T21:17:33.487Z,50.56
2022-09-04T21:23:05.862Z,51.28
2022-09-04T21:28:33.945Z,52.11
2022-09-04T21:33:55.894Z,53.18
2022-09-04T21:39:10.878Z,53.58
2022-09-04T21:44:22.793Z,53.69
2022-09-04T21:49:38.285Z,53.96
2022-09-04T21:56:44.851Z,53.72
2022-09-04T22:02:41.131Z,54.76
2022-09-04T22:06:03.692Z,54.07
2022-09-04T22:13:38.285Z,54.96
2022-09-04T22:16:52.499Z,55.20
2022-09-04T22:22:03.548Z,55.01
2022-09-04T22:27:28.407Z,56.10
2022-09-04T22:33:16.673Z,56.55
2022-09-04T22:38:35.138Z,55.70
2022-09-04T22:43:46.845Z,56.38
2022-09-04T22:49:20.057Z,55.84
2022-09-04T22:54:50.709Z,56.21
2022-09-04T23:00:13.068Z,57.91
2022-09-04T23:05:35.014Z,57.53
2022-09-04T23:14:02.315Z,57.55
2022-09-04T23:16:54.543Z,57.27
2022-09-04T23:26:45.679Z,57.30
2022-09-04T23:28:40.800Z,57.08
2022-09-04T23:33:56.502Z,57.41
2022-09-04T23:39:35.409Z,57.15
2022-09-04T23:45:30.574Z,57.64
2022-09-04T23:50:59.894Z,58.07
2022-09-04T23:56:42.837Z,59.19
